createdAt,value
2024-03-18T00:01:59.794Z,100680.08
2024-03-18T00:04:30.329Z,100674.45
2024-03-18T00:07:00.792Z,100670.98
2024-03-18T00:09:31.278Z,100666.67
2024-03-18T00:12:01.876Z,100664.88
2024-03-18T00:14:32.332Z,100663.84
2024-03-18T00:17:02.743Z,100663.73
2024-03-18T00:19:33.233Z,100662.09
2024-03-18T00:22:03.908Z,100659.19
2024-03-18T00:24:34.456Z,100658.94
2024-03-18T00:27:05.104Z,100657.56
2024-03-18T00:29:35.788Z,100651.84
2024-03-18T00:32:06.552Z,100652.75
2024-03-18T00:34:37.174Z,100649.75
2024-03-18T00:37:07.810Z,100645.06
2024-03-18T00:39:38.355Z,100645.45
2024-03-18T00:42:08.729Z,100637.80
2024-03-18T00:44:39.289Z,100636.96
2024-03-18T00:47:10.091Z,100629.62
2024-03-18T00:49:40.545Z,100632.04
2024-03-18T00:52:11.055Z,100624.42
2024-03-18T00:54:41.431Z,100622.09
2024-03-18T00:57:12.070Z,100621.75
2024-03-18T00:59:42.469Z,100619.23
2024-03-18T01:02:13.052Z,100622.09
2024-03-18T01:04:43.929Z,100619.97
2024-03-18T01:07:14.283Z,100618.50
2024-03-18T01:09:48.033Z,100618.87
2024-03-18T01:12:18.483Z,100620.27
2024-03-18T01:14:48.866Z,100617.50
2024-03-18T01:17:19.430Z,100618.57
2024-03-18T01:19:50.102Z,100619.21
2024-03-18T01:22:21.238Z,100613.35
2024-03-18T01:24:52.843Z,100611.34
2024-03-18T01:27:23.660Z,100608.36
2024-03-18T01:29:54.160Z,100608.83
2024-03-18T01:32:24.969Z,100611.16
2024-03-18T01:34:55.405Z,100615.31
2024-03-18T01:37:25.925Z,100622.88
2024-03-18T01:39:56.686Z,100635.45
2024-03-18T01:42:27.163Z,100640.00
2024-03-18T01:44:58.131Z,100643.03
2024-03-18T01:47:28.430Z,100645.50
2024-03-18T01:49:58.933Z,100651.08
2024-03-18T01:52:29.397Z,100653.08
2024-03-18T01:54:59.772Z,100654.55
2024-03-18T01:57:31.969Z,100658.79
2024-03-18T02:00:02.678Z,100661.25
2024-03-18T02:02:33.110Z,100661.41
2024-03-18T02:05:03.648Z,100664.88
2024-03-18T02:07:34.388Z,100660.87
2024-03-18T02:10:05.223Z,100657.48
2024-03-18T02:12:35.688Z,100658.02
2024-03-18T02:15:06.741Z,100661.89
2024-03-18T02:17:37.089Z,100668.15
2024-03-18T02:20:09.027Z,100673.00
2024-03-18T02:22:40.341Z,100676.88
2024-03-18T02:25:11.165Z,100676.08
2024-03-18T02:27:41.727Z,100678.52
2024-03-18T02:30:12.628Z,100676.58
2024-03-18T02:32:43.884Z,100678.21
2024-03-18T02:35:17.358Z,100675.66
2024-03-18T02:37:47.785Z,100674.19
2024-03-18T02:40:18.289Z,100677.67
2024-03-18T02:42:48.766Z,100681.09
2024-03-18T02:45:19.199Z,100678.61
2024-03-18T02:47:49.608Z,100684.85
2024-03-18T02:50:20.226Z,100684.88
2024-03-18T02:52:50.789Z,100686.63
2024-03-18T02:55:21.430Z,100688.85
2024-03-18T02:57:51.945Z,100693.39
2024-03-18T03:00:22.742Z,100691.71
2024-03-18T03:02:53.134Z,100693.91
2024-03-18T03:05:23.619Z,100694.31
2024-03-18T03:07:54.069Z,100698.54
2024-03-18T03:10:24.598Z,100704.23
2024-03-18T03:12:55.906Z,100709.54
2024-03-18T03:15:26.426Z,100709.11
2024-03-18T03:17:57.048Z,100709.70
2024-03-18T03:20:31.870Z,100706.52
2024-03-18T03:23:02.447Z,100707.50
2024-03-18T03:25:33.091Z,100709.27
2024-03-18T03:28:03.720Z,100712.35
2024-03-18T03:30:34.314Z,100708.30
2024-03-18T03:33:06.123Z,100709.19
2024-03-18T03:35:36.724Z,100704.92
2024-03-18T03:38:07.241Z,100707.16
2024-03-18T03:40:37.865Z,100710.48
2024-03-18T03:43:08.399Z,100706.95
2024-03-18T03:45:39.876Z,100702.21
2024-03-18T03:48:10.399Z,100700.67
2024-03-18T03:50:40.905Z,100693.13
2024-03-18T03:53:11.344Z,100693.36
2024-03-18T03:55:41.955Z,100694.80
2024-03-18T03:58:12.713Z,100699.70
2024-03-18T04:00:45.909Z,100700.50
2024-03-18T04:03:17.419Z,100704.40
2024-03-18T04:05:48.180Z,100704.33
2024-03-18T04:08:18.641Z,100703.43
2024-03-18T04:10:49.959Z,100706.11
2024-03-18T04:13:20.332Z,100708.44
2024-03-18T04:15:51.147Z,100708.95
2024-03-18T04:18:22.557Z,100697.83
2024-03-18T04:20:54.308Z,100701.43
2024-03-18T04:23:24.780Z,100702.26
2024-03-18T04:25:55.705Z,100711.09
2024-03-18T04:28:26.371Z,100709.84
2024-03-18T04:30:56.888Z,100713.70
2024-03-18T04:33:27.432Z,100713.67
2024-03-18T04:35:57.988Z,100714.20
2024-03-18T04:38:31.071Z,100720.73
2024-03-18T04:41:02.040Z,100723.36
2024-03-18T04:43:33.074Z,100729.48
2024-03-18T04:46:05.031Z,100733.75
2024-03-18T04:48:36.838Z,100738.14
2024-03-18T04:51:09.558Z,100740.58
2024-03-18T04:53:40.130Z,100748.16
2024-03-18T04:56:11.734Z,100748.87
2024-03-18T04:58:43.196Z,100748.70
2024-03-18T05:01:14.565Z,100748.79
2024-03-18T05:03:48.676Z,100746.10
2024-03-18T05:06:22.561Z,100749.08
2024-03-18T05:08:53.325Z,100752.34
2024-03-18T05:11:24.575Z,100754.15
2024-03-18T05:13:55.044Z,100758.98
2024-03-18T05:16:29.589Z,100762.16
2024-03-18T05:19:00.857Z,100764.10
2024-03-18T05:21:32.619Z,100769.52
2024-03-18T05:24:04.961Z,100771.08
2024-03-18T05:26:35.559Z,100768.66
2024-03-18T05:29:07.401Z,100769.31
2024-03-18T05:31:38.642Z,100773.13
2024-03-18T05:34:10.647Z,100772.64
2024-03-18T05:36:41.618Z,100777.86
2024-03-18T05:39:12.892Z,100779.67
2024-03-18T05:48:41.508Z,100779.27
2024-03-18T05:51:11.848Z,100777.13
2024-03-18T05:53:42.332Z,100779.13
2024-03-18T05:56:13.150Z,100782.02
2024-03-18T05:58:43.632Z,100780.67
2024-03-18T06:01:14.478Z,100783.84
2024-03-18T06:03:46.467Z,100782.34
2024-03-18T06:06:17.139Z,100787.54
2024-03-18T06:08:47.873Z,100788.67
2024-03-18T06:11:18.356Z,100792.04
2024-03-18T06:13:48.837Z,100789.08
2024-03-18T06:16:19.319Z,100791.04
2024-03-18T06:18:50.455Z,100792.33
2024-03-18T06:21:20.933Z,100787.00
2024-03-18T06:23:55.988Z,100790.75
2024-03-18T06:26:26.538Z,100789.35
2024-03-18T06:28:57.041Z,100789.05
2024-03-18T06:31:28.291Z,100782.23
2024-03-18T06:33:58.855Z,100783.09
2024-03-18T06:36:29.360Z,100776.32
2024-03-18T06:38:59.816Z,100770.86
2024-03-18T06:41:30.380Z,100768.96
2024-03-18T06:44:00.893Z,100773.41
2024-03-18T06:46:32.502Z,100773.66
2024-03-18T06:49:03.006Z,100774.86
2024-03-18T06:51:33.497Z,100774.52
2024-03-18T06:54:04.596Z,100779.61
2024-03-18T06:56:35.111Z,100786.21
2024-03-18T06:59:05.598Z,100789.59
2024-03-18T07:01:36.554Z,100793.52
2024-03-18T07:04:07.498Z,100798.03
2024-03-18T07:06:38.063Z,100796.61
2024-03-18T07:09:08.668Z,100804.76
2024-03-18T07:11:39.285Z,100808.83
2024-03-18T07:14:09.773Z,100805.88
2024-03-18T07:16:40.346Z,100807.58
2024-03-18T07:19:10.879Z,100803.84
2024-03-18T07:21:41.377Z,100800.59
2024-03-18T07:24:11.905Z,100801.46
2024-03-18T07:26:42.647Z,100799.23
2024-03-18T07:29:13.737Z,100801.89
2024-03-18T07:31:45.026Z,100796.41
2024-03-18T07:34:15.992Z,100799.42
2024-03-18T07:36:46.540Z,100794.61
2024-03-18T07:39:17.079Z,100792.73
2024-03-18T07:41:47.640Z,100786.18
2024-03-18T07:44:20.985Z,100784.87
2024-03-18T07:46:51.547Z,100784.78
2024-03-18T07:49:22.096Z,100781.15
2024-03-18T07:51:52.527Z,100779.86
2024-03-18T07:54:23.003Z,100778.52
2024-03-18T07:56:53.499Z,100777.92
2024-03-18T07:59:24.091Z,100775.88
2024-03-18T08:01:54.617Z,100771.79
2024-03-18T08:04:25.215Z,100771.42
2024-03-18T08:06:55.653Z,100769.23
2024-03-18T08:09:26.591Z,100759.42
2024-03-18T08:11:57.157Z,100756.08
2024-03-18T08:14:27.732Z,100759.00
2024-03-18T08:16:59.314Z,100765.02
2024-03-18T08:19:29.921Z,100764.11
2024-03-18T08:22:10.365Z,100757.52
2024-03-18T08:24:47.871Z,100755.29
2024-03-18T08:27:18.332Z,100754.10
2024-03-18T08:29:48.748Z,100753.14
2024-03-18T08:32:19.453Z,100752.06
2024-03-18T08:34:50.147Z,100750.42
2024-03-18T08:37:21.236Z,100744.52
2024-03-18T08:39:55.547Z,100745.85
2024-03-18T08:42:26.345Z,100745.92
2024-03-18T08:44:57.113Z,100739.94
2024-03-18T08:47:27.579Z,100741.33
2024-03-18T08:49:58.143Z,100735.21
2024-03-18T08:52:28.616Z,100734.27
2024-03-18T08:54:59.275Z,100728.45
2024-03-18T08:57:30.666Z,100725.43
2024-03-18T09:00:01.199Z,100727.53
2024-03-18T09:02:31.877Z,100722.88
2024-03-18T09:05:02.511Z,100716.29
2024-03-18T09:07:33.084Z,100719.11
2024-03-18T09:10:03.677Z,100718.08
2024-03-18T09:12:34.193Z,100714.15
2024-03-18T09:15:06.205Z,100718.77
2024-03-18T09:17:36.776Z,100717.00
2024-03-18T09:20:10.770Z,100718.96
2024-03-18T09:22:41.323Z,100715.98
2024-03-18T09:25:12.880Z,100712.31
2024-03-18T09:27:43.428Z,100705.89
2024-03-18T09:30:14.258Z,100707.42
2024-03-18T09:32:44.694Z,100702.41
2024-03-18T09:35:15.249Z,100698.63
2024-03-18T09:37:45.798Z,100699.04
2024-03-18T09:40:16.539Z,100696.77
2024-03-18T09:42:47.139Z,100695.21
2024-03-18T09:45:17.999Z,100691.91
2024-03-18T09:47:49.653Z,100686.80
2024-03-18T09:50:21.190Z,100685.53
2024-03-18T09:52:51.686Z,100679.27
2024-03-18T09:55:25.718Z,100679.35
2024-03-18T09:57:56.974Z,100677.99
2024-03-18T10:00:27.607Z,100671.43
2024-03-18T10:03:00.457Z,100667.63
2024-03-18T10:05:32.274Z,100666.33
2024-03-18T10:08:03.283Z,100662.55
2024-03-18T10:10:33.861Z,100661.94
2024-03-18T10:13:04.510Z,100661.16
2024-03-18T10:15:34.979Z,100656.08
2024-03-18T10:18:07.650Z,100660.11
2024-03-18T10:20:39.334Z,100655.55
2024-03-18T10:23:11.073Z,100654.70
2024-03-18T10:25:41.694Z,100655.37
2024-03-18T10:28:13.901Z,100651.41
2024-03-18T10:30:44.480Z,100647.21
2024-03-18T10:33:17.679Z,100647.70
2024-03-18T10:35:50.813Z,100646.27
2024-03-18T10:38:25.703Z,100641.08
2024-03-18T10:40:57.289Z,100641.30
2024-03-18T10:43:32.128Z,100643.67
2024-03-18T10:46:02.743Z,100637.69
2024-03-18T10:48:33.332Z,100639.18
2024-03-18T10:51:04.177Z,100631.05
2024-03-18T10:53:46.465Z,100628.91
2024-03-18T10:56:23.685Z,100622.77
2024-03-18T10:58:54.243Z,100620.52
2024-03-18T11:01:24.798Z,100620.66
2024-03-18T11:03:55.507Z,100613.73
2024-03-18T11:06:27.427Z,100613.92
2024-03-18T11:09:02.142Z,100614.68
2024-03-18T11:11:33.154Z,100614.02
2024-03-18T11:14:04.515Z,100602.08
2024-03-18T11:16:36.009Z,100594.91
2024-03-18T11:19:07.781Z,100595.03
2024-03-18T11:21:38.522Z,100589.20
2024-03-18T11:24:09.160Z,100584.18
2024-03-18T11:26:43.794Z,100577.64
2024-03-18T11:29:14.344Z,100575.55
2024-03-18T11:31:44.926Z,100572.86
2024-03-18T11:34:21.309Z,100564.43
2024-03-18T11:36:51.947Z,100558.52
2024-03-18T11:39:23.492Z,100556.00
2024-03-18T11:42:02.320Z,100549.59
2024-03-18T11:44:34.018Z,100539.59
2024-03-18T11:47:05.232Z,100534.85
2024-03-18T11:49:35.934Z,100534.73
2024-03-18T11:52:07.525Z,100531.40
2024-03-18T11:54:38.075Z,100525.80
2024-03-18T11:57:08.662Z,100524.38
2024-03-18T11:59:39.263Z,100524.98
2024-03-18T12:02:09.759Z,100515.19
2024-03-18T12:04:40.181Z,100508.94
2024-03-18T12:07:10.733Z,100505.56
2024-03-18T12:09:41.442Z,100504.71
2024-03-18T12:12:12.077Z,100498.06
2024-03-18T12:14:42.634Z,100498.08
2024-03-18T12:17:17.361Z,100495.55
2024-03-18T12:19:56.057Z,100487.34
2024-03-18T12:22:27.065Z,100483.61
2024-03-18T12:25:18.245Z,100475.85
2024-03-18T12:28:06.901Z,100478.05
2024-03-18T12:30:38.087Z,100475.45
2024-03-18T12:33:10.733Z,100475.05
2024-03-18T12:35:43.804Z,100470.40
2024-03-18T12:38:15.878Z,100472.09
2024-03-18T12:40:46.329Z,100467.04
2024-03-18T12:43:16.850Z,100467.63
2024-03-18T12:45:47.770Z,100457.84
2024-03-18T12:48:18.218Z,100457.34
2024-03-18T12:50:48.737Z,100458.96
2024-03-18T12:53:20.260Z,100460.98
2024-03-18T12:55:50.749Z,100458.41
2024-03-18T12:58:21.310Z,100454.04
2024-03-18T13:00:52.393Z,100447.34
2024-03-18T13:03:23.041Z,100450.39
2024-03-18T13:05:54.267Z,100448.16
2024-03-18T13:08:24.921Z,100446.30
2024-03-18T13:10:55.490Z,100440.86
2024-03-18T13:13:27.493Z,100446.64
2024-03-18T13:15:58.211Z,100446.80
2024-03-18T13:18:28.797Z,100443.69
2024-03-18T13:20:59.399Z,100440.42
2024-03-18T13:23:33.661Z,100442.47
2024-03-18T13:26:04.784Z,100442.17
2024-03-18T13:28:35.779Z,100433.37
2024-03-18T13:31:06.572Z,100432.45
2024-03-18T13:33:38.028Z,100428.76
2024-03-18T13:36:09.091Z,100427.39
2024-03-18T13:38:40.106Z,100422.32
2024-03-18T13:41:14.114Z,100424.61
2024-03-18T13:43:44.899Z,100424.83
2024-03-18T13:46:15.394Z,100426.21
2024-03-18T13:48:46.028Z,100428.38
2024-03-18T13:51:16.986Z,100423.08
2024-03-18T13:53:47.945Z,100417.20
2024-03-18T13:56:18.461Z,100413.65
2024-03-18T13:58:50.258Z,100414.27
2024-03-18T14:01:21.519Z,100417.96
2024-03-18T14:03:52.984Z,100416.84
2024-03-18T14:06:23.444Z,100417.45
2024-03-18T14:08:54.095Z,100417.95
2024-03-18T14:11:24.513Z,100412.36
2024-03-18T14:13:56.863Z,100411.16
2024-03-18T14:16:27.485Z,100407.05
2024-03-18T14:18:58.020Z,100400.38
2024-03-18T14:21:28.639Z,100404.23
2024-03-18T14:23:59.051Z,100400.44
2024-03-18T14:26:29.494Z,100402.94
2024-03-18T14:29:00.814Z,100398.37
2024-03-18T14:31:32.098Z,100396.38
2024-03-18T14:34:03.844Z,100392.00
2024-03-18T14:36:37.433Z,100392.77
2024-03-18T14:39:08.595Z,100392.23
2024-03-18T14:41:39.614Z,100391.73
2024-03-18T14:44:10.247Z,100392.04
2024-03-18T14:46:40.740Z,100384.56
2024-03-18T14:49:11.199Z,100383.66
2024-03-18T14:51:41.786Z,100382.65
2024-03-18T14:54:12.441Z,100380.18
2024-03-18T14:56:43.094Z,100375.54
2024-03-18T14:59:13.639Z,100374.71
2024-03-18T15:01:44.068Z,100376.08
2024-03-18T15:04:14.660Z,100377.91
2024-03-18T15:06:45.277Z,100378.65
2024-03-18T15:09:15.773Z,100378.78
2024-03-18T15:11:46.251Z,100376.56
2024-03-18T15:14:16.828Z,100377.21
2024-03-18T15:16:47.415Z,100379.38
2024-03-18T15:19:17.966Z,100378.63
2024-03-18T15:21:50.114Z,100376.34
2024-03-18T15:24:28.404Z,100372.77
2024-03-18T15:27:16.509Z,100371.94
2024-03-18T15:29:48.155Z,100371.98
2024-03-18T15:32:18.779Z,100367.00
2024-03-18T15:34:49.373Z,100371.45
2024-03-18T15:37:21.117Z,100366.20
2024-03-18T15:39:51.801Z,100364.89
2024-03-18T15:42:22.350Z,100366.48
2024-03-18T15:44:52.947Z,100360.52
2024-03-18T15:47:23.445Z,100360.41
2024-03-18T15:49:54.120Z,100359.11
2024-03-18T15:52:24.875Z,100362.88
2024-03-18T15:54:55.562Z,100364.60
2024-03-18T15:57:26.146Z,100360.73
2024-03-18T15:59:56.726Z,100360.30
2024-03-18T16:02:28.407Z,100361.09
2024-03-18T16:04:59.039Z,100363.45
2024-03-18T16:07:29.432Z,100366.14
2024-03-18T16:10:00.335Z,100368.95
2024-03-18T16:12:30.858Z,100372.28
2024-03-18T16:15:01.507Z,100373.36
2024-03-18T16:17:32.127Z,100376.21
2024-03-18T16:20:05.154Z,100376.86
2024-03-18T16:22:35.675Z,100379.45
2024-03-18T16:25:07.084Z,100379.48
2024-03-18T16:27:37.658Z,100379.86
2024-03-18T16:30:09.553Z,100382.55
2024-03-18T16:32:40.211Z,100380.94
2024-03-18T16:35:13.503Z,100382.75
2024-03-18T16:37:44.092Z,100381.61
2024-03-18T16:40:15.139Z,100386.73
2024-03-18T16:42:45.643Z,100387.38
2024-03-18T16:45:16.281Z,100389.81
2024-03-18T16:47:46.807Z,100391.89
2024-03-18T16:50:17.229Z,100396.94
2024-03-18T16:52:47.666Z,100398.10
2024-03-18T16:55:18.405Z,100403.02
2024-03-18T16:57:48.832Z,100402.02
2024-03-18T17:00:20.371Z,100398.73
2024-03-18T17:02:50.920Z,100398.89
2024-03-18T17:05:22.157Z,100402.02
2024-03-18T17:07:52.686Z,100399.78
2024-03-18T17:10:23.383Z,100402.93
2024-03-18T17:12:54.496Z,100403.55
2024-03-18T17:15:25.060Z,100400.06
2024-03-18T17:17:55.759Z,100401.44
2024-03-18T17:20:26.332Z,100405.64
2024-03-18T17:22:56.744Z,100408.98
2024-03-18T17:25:27.401Z,100408.59
2024-03-18T17:27:58.004Z,100408.02
2024-03-18T17:30:28.500Z,100412.20
2024-03-18T17:32:59.012Z,100420.00
2024-03-18T17:35:47.300Z,100419.80
2024-03-18T17:38:20.198Z,100417.02
2024-03-18T17:40:53.362Z,100418.69
2024-03-18T17:43:25.663Z,100419.73
2024-03-18T17:45:57.233Z,100420.16
2024-03-18T17:48:28.183Z,100425.34
2024-03-18T17:50:59.072Z,100431.23
2024-03-18T17:53:29.632Z,100433.06
2024-03-18T17:56:00.264Z,100430.88
2024-03-18T17:58:31.250Z,100431.23
2024-03-18T18:01:02.669Z,100432.98
2024-03-18T18:03:33.420Z,100433.52
2024-03-18T18:06:03.932Z,100433.40
2024-03-18T18:08:35.117Z,100436.09
2024-03-18T18:11:05.895Z,100432.19
2024-03-18T18:13:36.402Z,100431.96
2024-03-18T18:16:07.819Z,100434.34
2024-03-18T18:18:38.777Z,100436.33
2024-03-18T18:21:09.436Z,100441.91
2024-03-18T18:23:39.978Z,100444.67
2024-03-18T18:26:10.680Z,100444.30
2024-03-18T18:28:41.182Z,100442.56
2024-03-18T18:31:11.718Z,100442.68
2024-03-18T18:33:42.676Z,100441.99
2024-03-18T18:36:13.373Z,100446.52
2024-03-18T18:38:45.891Z,100440.95
2024-03-18T18:41:16.849Z,100442.74
2024-03-18T18:43:47.301Z,100439.66
2024-03-18T18:46:17.838Z,100446.95
2024-03-18T18:48:50.866Z,100449.69
2024-03-18T18:51:22.850Z,100448.04
2024-03-18T18:53:54.153Z,100450.50
2024-03-18T18:56:27.031Z,100450.65
2024-03-18T18:58:57.675Z,100456.13
2024-03-18T19:01:28.687Z,100456.83
2024-03-18T19:03:59.190Z,100459.55
2024-03-18T19:06:29.927Z,100464.84
2024-03-18T19:09:01.279Z,100465.59
2024-03-18T19:11:31.814Z,100466.07
2024-03-18T19:14:02.395Z,100468.11
2024-03-18T19:16:33.025Z,100476.18
2024-03-18T19:19:03.548Z,100479.34
2024-03-18T19:21:34.070Z,100482.30
2024-03-18T19:24:06.140Z,100480.53
2024-03-18T19:26:36.810Z,100479.97
2024-03-18T19:29:07.538Z,100480.36
2024-03-18T19:31:38.098Z,100483.41
2024-03-18T19:34:08.695Z,100481.21
2024-03-18T19:36:39.628Z,100480.29
2024-03-18T19:39:12.909Z,100479.02
2024-03-18T19:41:43.686Z,100483.42
2024-03-18T19:44:18.301Z,100482.22
2024-03-18T19:46:48.840Z,100484.75
2024-03-18T19:49:19.905Z,100482.77
2024-03-18T19:51:51.589Z,100483.44
2024-03-18T19:54:22.107Z,100483.77
2024-03-18T19:56:52.706Z,100485.13
2024-03-18T19:59:23.179Z,100486.02
2024-03-18T20:01:54.794Z,100485.11
2024-03-18T20:04:27.316Z,100485.23
2024-03-18T20:07:00.130Z,100485.52
2024-03-18T20:09:30.693Z,100483.93
2024-03-18T20:12:01.206Z,100487.66
2024-03-18T20:14:31.693Z,100488.91
2024-03-18T20:17:02.237Z,100488.95
2024-03-18T20:19:32.740Z,100489.16
2024-03-18T20:22:03.357Z,100490.66
2024-03-18T20:24:33.809Z,100492.52
2024-03-18T20:27:04.288Z,100489.02
2024-03-18T20:29:34.855Z,100487.04
2024-03-18T20:32:06.081Z,100482.08
2024-03-18T20:34:36.724Z,100484.39
2024-03-18T20:37:08.347Z,100481.67
2024-03-18T20:39:38.858Z,100479.99
2024-03-18T20:42:09.439Z,100482.56
2024-03-18T20:44:39.920Z,100482.72
2024-03-18T20:47:12.687Z,100486.89
2024-03-18T20:49:43.161Z,100490.04
2024-03-18T20:52:13.698Z,100489.98
2024-03-18T20:54:45.503Z,100490.63
2024-03-18T20:57:16.505Z,100494.80
2024-03-18T20:59:48.511Z,100493.22
2024-03-18T21:02:18.957Z,100491.26
2024-03-18T21:04:50.305Z,100495.84
2024-03-18T21:07:20.824Z,100501.81
2024-03-18T21:09:54.260Z,100504.23
2024-03-18T21:12:25.135Z,100508.89
2024-03-18T21:14:55.753Z,100509.89
2024-03-18T21:17:26.226Z,100508.33
2024-03-18T21:19:56.801Z,100510.13
2024-03-18T21:22:27.174Z,100513.67
2024-03-18T21:24:57.575Z,100518.24
2024-03-18T21:27:28.230Z,100518.17
2024-03-18T21:29:58.791Z,100522.64
2024-03-18T21:32:29.263Z,100520.87
2024-03-18T21:34:59.784Z,100518.27
2024-03-18T21:37:31.998Z,100517.58
2024-03-18T21:40:02.484Z,100518.34
2024-03-18T21:42:34.765Z,100516.85
2024-03-18T21:45:06.889Z,100520.77
2024-03-18T21:47:41.024Z,100517.06
2024-03-18T21:50:12.429Z,100515.45
2024-03-18T21:52:44.717Z,100514.11
2024-03-18T21:55:15.354Z,100518.29
2024-03-18T21:57:45.860Z,100524.08
2024-03-18T22:00:21.508Z,100522.18
2024-03-18T22:02:53.400Z,100520.81
2024-03-18T22:05:24.136Z,100523.85
2024-03-18T22:07:54.591Z,100520.77
2024-03-18T22:10:25.122Z,100518.10
2024-03-18T22:12:55.612Z,100517.35
2024-03-18T22:15:26.186Z,100521.30
2024-03-18T22:17:56.678Z,100516.34
2024-03-18T22:20:28.623Z,100522.34
2024-03-18T22:22:59.674Z,100523.54
2024-03-18T22:25:30.207Z,100526.83
2024-03-18T22:28:00.751Z,100526.77
2024-03-18T22:30:31.298Z,100523.84
2024-03-18T22:33:01.807Z,100522.23
2024-03-18T22:35:32.893Z,100518.43
2024-03-18T22:38:03.493Z,100513.54
2024-03-18T22:40:35.860Z,100510.71
2024-03-18T22:43:07.009Z,100512.35
2024-03-18T22:45:37.796Z,100508.48
2024-03-18T22:48:10.966Z,100514.11
2024-03-18T22:50:41.472Z,100512.25
2024-03-18T22:53:12.036Z,100511.16
2024-03-18T22:55:42.879Z,100512.98
2024-03-18T22:58:13.485Z,100515.25
2024-03-18T23:00:43.983Z,100515.90
2024-03-18T23:03:14.696Z,100517.07
2024-03-18T23:05:46.019Z,100520.42
2024-03-18T23:08:16.567Z,100515.64
2024-03-18T23:10:47.392Z,100517.02
2024-03-18T23:13:18.344Z,100516.01
2024-03-18T23:15:48.833Z,100518.61
2024-03-18T23:18:19.282Z,100518.73
2024-03-18T23:20:57.243Z,100515.68
2024-03-18T23:23:27.906Z,100517.65
2024-03-18T23:26:02.355Z,100512.05
2024-03-18T23:28:32.974Z,100512.15
2024-03-18T23:31:03.511Z,100507.48
2024-03-18T23:33:34.089Z,100505.30
2024-03-18T23:36:06.957Z,100500.16
2024-03-18T23:38:37.743Z,100503.27
2024-03-18T23:41:08.321Z,100500.55
2024-03-18T23:43:38.757Z,100496.86
2024-03-18T23:46:10.751Z,100496.98
2024-03-18T23:48:41.826Z,100495.70
2024-03-18T23:51:13.691Z,100497.42
2024-03-18T23:53:44.211Z,100499.25
2024-03-18T23:56:14.744Z,100493.35
2024-03-18T23:58:45.229Z,100496.27
